sensor_id;sensor_type;location;lat;lon;timestamp;P1;durP1;ratioP1;P2;durP2;ratioP2
81821;SDS011;71257;52.192;5.654;2023-07-28T00:02:03;18.63;;;9.52;;
81821;SDS011;71257;52.192;5.654;2023-07-28T00:04:29;16.67;;;8.70;;
81821;SDS011;71257;52.192;5.654;2023-07-28T00:06:54;18.02;;;9.18;;
81821;SDS011;71257;52.192;5.654;2023-07-28T00:09:20;17.95;;;8.93;;
81821;SDS011;71257;52.192;5.654;2023-07-28T00:11:45;22.02;;;10.68;;
81821;SDS011;71257;52.192;5.654;2023-07-28T00:14:11;17.73;;;9.40;;
81821;SDS011;71257;52.192;5.654;2023-07-28T00:16:36;23.63;;;11.57;;
81821;SDS011;71257;52.192;5.654;2023-07-28T00:19:02;17.70;;;9.38;;
81821;SDS011;71257;52.192;5.654;2023-07-28T00:21:29;20.80;;;9.55;;
81821;SDS011;71257;52.192;5.654;2023-07-28T00:23:54;21.38;;;9.90;;
81821;SDS011;71257;52.192;5.654;2023-07-28T00:26:19;20.85;;;10.13;;
81821;SDS011;71257;52.192;5.654;2023-07-28T00:28:45;17.52;;;9.43;;
81821;SDS011;71257;52.192;5.654;2023-07-28T00:31:10;19.05;;;10.48;;
81821;SDS011;71257;52.192;5.654;2023-07-28T00:33:36;19.63;;;10.80;;
81821;SDS011;71257;52.192;5.654;2023-07-28T00:36:02;20.10;;;10.75;;
81821;SDS011;71257;52.192;5.654;2023-07-28T00:38:28;18.52;;;10.23;;
81821;SDS011;71257;52.192;5.654;2023-07-28T00:40:53;21.20;;;10.40;;
81821;SDS011;71257;52.192;5.654;2023-07-28T00:43:19;20.50;;;10.45;;
81821;SDS011;71257;52.192;5.654;2023-07-28T00:45:44;20.35;;;11.27;;
81821;SDS011;71257;52.192;5.654;2023-07-28T00:48:12;23.73;;;11.30;;
81821;SDS011;71257;52.192;5.654;2023-07-28T00:50:39;20.30;;;10.20;;
81821;SDS011;71257;52.192;5.654;2023-07-28T00:53:06;20.98;;;11.52;;
81821;SDS011;71257;52.192;5.654;2023-07-28T00:55:32;23.08;;;11.68;;
81821;SDS011;71257;52.192;5.654;2023-07-28T00:57:58;24.30;;;11.55;;
81821;SDS011;71257;52.192;5.654;2023-07-28T01:00:24;19.55;;;10.75;;
81821;SDS011;71257;52.192;5.654;2023-07-28T01:02:49;23.58;;;11.68;;
81821;SDS011;71257;52.192;5.654;2023-07-28T01:05:15;24.02;;;11.35;;
81821;SDS011;71257;52.192;5.654;2023-07-28T01:10:41;19.77;;;10.38;;
81821;SDS011;71257;52.192;5.654;2023-07-28T01:13:07;19.83;;;10.65;;
81821;SDS011;71257;52.192;5.654;2023-07-28T01:15:32;20.67;;;11.57;;
81821;SDS011;71257;52.192;5.654;2023-07-28T01:17:58;20.30;;;10.20;;
81821;SDS011;71257;52.192;5.654;2023-07-28T01:20:24;22.00;;;11.13;;
81821;SDS011;71257;52.192;5.654;2023-07-28T01:23:09;22.33;;;11.57;;
81821;SDS011;71257;52.192;5.654;2023-07-28T01:28:35;18.73;;;10.43;;
81821;SDS011;71257;52.192;5.654;2023-07-28T01:31:02;17.67;;;10.45;;
81821;SDS011;71257;52.192;5.654;2023-07-28T01:33:29;21.17;;;9.20;;
81821;SDS011;71257;52.192;5.654;2023-07-28T01:35:55;23.63;;;10.10;;
81821;SDS011;71257;52.192;5.654;2023-07-28T01:38:21;19.95;;;10.50;;
81821;SDS011;71257;52.192;5.654;2023-07-28T01:40:46;22.52;;;9.73;;
81821;SDS011;71257;52.192;5.654;2023-07-28T01:43:12;21.52;;;10.07;;
81821;SDS011;71257;52.192;5.654;2023-07-28T01:45:37;21.05;;;9.93;;
81821;SDS011;71257;52.192;5.654;2023-07-28T01:48:03;20.27;;;9.88;;
81821;SDS011;71257;52.192;5.654;2023-07-28T01:50:29;18.35;;;9.13;;
81821;SDS011;71257;52.192;5.654;2023-07-28T01:52:54;16.60;;;9.55;;
81821;SDS011;71257;52.192;5.654;2023-07-28T01:55:20;21.52;;;9.77;;
81821;SDS011;71257;52.192;5.654;2023-07-28T01:58:01;17.38;;;10.15;;
81821;SDS011;71257;52.192;5.654;2023-07-28T02:00:27;19.80;;;9.93;;
81821;SDS011;71257;52.192;5.654;2023-07-28T02:02:53;22.83;;;10.63;;
81821;SDS011;71257;52.192;5.654;2023-07-28T02:05:19;16.98;;;9.23;;
81821;SDS011;71257;52.192;5.654;2023-07-28T02:07:45;16.08;;;8.98;;
81821;SDS011;71257;52.192;5.654;2023-07-28T02:10:11;20.08;;;9.48;;
81821;SDS011;71257;52.192;5.654;2023-07-28T02:12:37;17.13;;;8.45;;
81821;SDS011;71257;52.192;5.654;2023-07-28T02:15:03;19.45;;;9.32;;
81821;SDS011;71257;52.192;5.654;2023-07-28T02:17:30;23.95;;;10.13;;
81821;SDS011;71257;52.192;5.654;2023-07-28T02:19:55;23.83;;;10.77;;
81821;SDS011;71257;52.192;5.654;2023-07-28T02:22:21;22.15;;;10.07;;
81821;SDS011;71257;52.192;5.654;2023-07-28T02:24:46;20.77;;;9.60;;
81821;SDS011;71257;52.192;5.654;2023-07-28T02:27:11;16.23;;;9.40;;
81821;SDS011;71257;52.192;5.654;2023-07-28T02:29:37;22.90;;;10.73;;
81821;SDS011;71257;52.192;5.654;2023-07-28T02:32:02;19.50;;;9.73;;
81821;SDS011;71257;52.192;5.654;2023-07-28T02:34:28;21.63;;;11.57;;
81821;SDS011;71257;52.192;5.654;2023-07-28T02:36:53;20.20;;;9.38;;
81821;SDS011;71257;52.192;5.654;2023-07-28T02:39:19;21.63;;;9.23;;
81821;SDS011;71257;52.192;5.654;2023-07-28T02:41:45;18.48;;;9.13;;
81821;SDS011;71257;52.192;5.654;2023-07-28T02:44:11;19.15;;;9.65;;
81821;SDS011;71257;52.192;5.654;2023-07-28T02:46:36;19.50;;;9.52;;
81821;SDS011;71257;52.192;5.654;2023-07-28T02:49:02;18.35;;;10.07;;
81821;SDS011;71257;52.192;5.654;2023-07-28T02:51:29;19.60;;;10.10;;
81821;SDS011;71257;52.192;5.654;2023-07-28T02:53:55;22.75;;;9.60;;
81821;SDS011;71257;52.192;5.654;2023-07-28T02:56:20;18.47;;;9.10;;
81821;SDS011;71257;52.192;5.654;2023-07-28T02:58:46;21.30;;;10.35;;
81821;SDS011;71257;52.192;5.654;2023-07-28T03:01:13;18.13;;;8.90;;
81821;SDS011;71257;52.192;5.654;2023-07-28T03:03:38;22.10;;;11.63;;
81821;SDS011;71257;52.192;5.654;2023-07-28T03:06:03;22.63;;;11.53;;
81821;SDS011;71257;52.192;5.654;2023-07-28T03:08:29;20.93;;;10.30;;
81821;SDS011;71257;52.192;5.654;2023-07-28T03:10:56;22.00;;;10.53;;
81821;SDS011;71257;52.192;5.654;2023-07-28T03:13:23;24.98;;;11.70;;
81821;SDS011;71257;52.192;5.654;2023-07-28T03:15:48;27.27;;;11.20;;
81821;SDS011;71257;52.192;5.654;2023-07-28T03:18:16;25.95;;;11.70;;
81821;SDS011;71257;52.192;5.654;2023-07-28T03:20:41;24.60;;;11.27;;
81821;SDS011;71257;52.192;5.654;2023-07-28T03:23:07;26.10;;;12.53;;
81821;SDS011;71257;52.192;5.654;2023-07-28T03:25:32;28.07;;;11.50;;
81821;SDS011;71257;52.192;5.654;2023-07-28T03:27:58;27.92;;;11.95;;
81821;SDS011;71257;52.192;5.654;2023-07-28T03:30:23;21.73;;;10.73;;
81821;SDS011;71257;52.192;5.654;2023-07-28T03:32:48;26.17;;;12.13;;
81821;SDS011;71257;52.192;5.654;2023-07-28T03:35:14;23.67;;;10.70;;
81821;SDS011;71257;52.192;5.654;2023-07-28T03:37:39;26.80;;;11.23;;
81821;SDS011;71257;52.192;5.654;2023-07-28T03:40:05;20.98;;;10.07;;
81821;SDS011;71257;52.192;5.654;2023-07-28T03:42:31;31.70;;;12.82;;
81821;SDS011;71257;52.192;5.654;2023-07-28T03:44:56;25.42;;;11.93;;
81821;SDS011;71257;52.192;5.654;2023-07-28T03:47:22;24.33;;;11.07;;
81821;SDS011;71257;52.192;5.654;2023-07-28T03:49:47;26.60;;;11.82;;
81821;SDS011;71257;52.192;5.654;2023-07-28T03:52:13;30.80;;;12.90;;
81821;SDS011;71257;52.192;5.654;2023-07-28T03:54:38;29.13;;;11.43;;
81821;SDS011;71257;52.192;5.654;2023-07-28T03:57:03;30.13;;;13.70;;
81821;SDS011;71257;52.192;5.654;2023-07-28T03:59:29;29.58;;;11.82;;
81821;SDS011;71257;52.192;5.654;2023-07-28T04:01:54;29.33;;;13.70;;
81821;SDS011;71257;52.192;5.654;2023-07-28T04:04:20;29.83;;;12.57;;
81821;SDS011;71257;52.192;5.654;2023-07-28T04:06:46;30.05;;;12.18;;
81821;SDS011;71257;52.192;5.654;2023-07-28T04:09:15;25.33;;;12.30;;
81821;SDS011;71257;52.192;5.654;2023-07-28T04:11:42;34.22;;;14.23;;
81821;SDS011;71257;52.192;5.654;2023-07-28T04:14:08;29.23;;;12.75;;
81821;SDS011;71257;52.192;5.654;2023-07-28T04:16:33;32.17;;;13.15;;
81821;SDS011;71257;52.192;5.654;2023-07-28T04:18:59;31.80;;;12.73;;
81821;SDS011;71257;52.192;5.654;2023-07-28T04:21:24;27.45;;;12.60;;
81821;SDS011;71257;52.192;5.654;2023-07-28T04:23:50;30.90;;;14.13;;
81821;SDS011;71257;52.192;5.654;2023-07-28T04:26:16;30.67;;;11.65;;
81821;SDS011;71257;52.192;5.654;2023-07-28T04:28:42;29.10;;;12.82;;
81821;SDS011;71257;52.192;5.654;2023-07-28T04:31:08;39.00;;;12.82;;
81821;SDS011;71257;52.192;5.654;2023-07-28T04:33:33;28.42;;;12.85;;
81821;SDS011;71257;52.192;5.654;2023-07-28T04:35:59;29.77;;;12.77;;
81821;SDS011;71257;52.192;5.654;2023-07-28T04:38:24;35.53;;;13.77;;
81821;SDS011;71257;52.192;5.654;2023-07-28T04:40:50;29.73;;;12.47;;
81821;SDS011;71257;52.192;5.654;2023-07-28T04:43:15;33.83;;;12.48;;
81821;SDS011;71257;52.192;5.654;2023-07-28T04:45:40;31.07;;;14.57;;
81821;SDS011;71257;52.192;5.654;2023-07-28T04:48:06;30.23;;;12.37;;
81821;SDS011;71257;52.192;5.654;2023-07-28T04:50:31;32.33;;;14.30;;
81821;SDS011;71257;52.192;5.654;2023-07-28T04:52:58;30.75;;;12.95;;
81821;SDS011;71257;52.192;5.654;2023-07-28T04:55:24;32.90;;;12.38;;
81821;SDS011;71257;52.192;5.654;2023-07-28T04:57:51;30.55;;;13.00;;
81821;SDS011;71257;52.192;5.654;2023-07-28T05:00:17;33.95;;;12.88;;
81821;SDS011;71257;52.192;5.654;2023-07-28T05:02:42;36.45;;;12.52;;
81821;SDS011;71257;52.192;5.654;2023-07-28T05:05:08;30.52;;;13.63;;
81821;SDS011;71257;52.192;5.654;2023-07-28T05:07:33;31.83;;;12.27;;
81821;SDS011;71257;52.192;5.654;2023-07-28T05:09:58;35.33;;;13.85;;
81821;SDS011;71257;52.192;5.654;2023-07-28T05:12:24;29.47;;;12.70;;
81821;SDS011;71257;52.192;5.654;2023-07-28T05:14:49;28.53;;;11.87;;
81821;SDS011;71257;52.192;5.654;2023-07-28T05:17:14;35.03;;;12.50;;
81821;SDS011;71257;52.192;5.654;2023-07-28T05:19:40;34.77;;;12.43;;
81821;SDS011;71257;52.192;5.654;2023-07-28T05:22:05;36.33;;;13.52;;
81821;SDS011;71257;52.192;5.654;2023-07-28T05:24:31;35.13;;;12.35;;
81821;SDS011;71257;52.192;5.654;2023-07-28T05:26:58;35.38;;;14.00;;
81821;SDS011;71257;52.192;5.654;2023-07-28T05:29:23;32.42;;;12.30;;
81821;SDS011;71257;52.192;5.654;2023-07-28T05:31:48;32.87;;;11.87;;
81821;SDS011;71257;52.192;5.654;2023-07-28T05:34:14;34.53;;;12.95;;
81821;SDS011;71257;52.192;5.654;2023-07-28T05:36:39;35.63;;;13.93;;
81821;SDS011;71257;52.192;5.654;2023-07-28T05:39:05;33.10;;;12.50;;
81821;SDS011;71257;52.192;5.654;2023-07-28T05:41:30;40.28;;;14.45;;
81821;SDS011;71257;52.192;5.654;2023-07-28T05:43:56;33.38;;;13.05;;
81821;SDS011;71257;52.192;5.654;2023-07-28T05:46:21;31.27;;;12.47;;
81821;SDS011;71257;52.192;5.654;2023-07-28T05:48:47;30.25;;;12.35;;
81821;SDS011;71257;52.192;5.654;2023-07-28T05:51:12;27.00;;;11.77;;
81821;SDS011;71257;52.192;5.654;2023-07-28T05:53:37;32.90;;;12.48;;
81821;SDS011;71257;52.192;5.654;2023-07-28T05:56:03;37.85;;;13.95;;
81821;SDS011;71257;52.192;5.654;2023-07-28T05:58:28;37.38;;;13.15;;
81821;SDS011;71257;52.192;5.654;2023-07-28T06:00:54;33.78;;;13.07;;
81821;SDS011;71257;52.192;5.654;2023-07-28T06:03:19;26.83;;;12.23;;
81821;SDS011;71257;52.192;5.654;2023-07-28T06:05:45;30.52;;;13.23;;
81821;SDS011;71257;52.192;5.654;2023-07-28T06:08:10;31.05;;;11.82;;
81821;SDS011;71257;52.192;5.654;2023-07-28T06:10:36;29.02;;;11.88;;
81821;SDS011;71257;52.192;5.654;2023-07-28T06:13:02;30.67;;;12.20;;
81821;SDS011;71257;52.192;5.654;2023-07-28T06:15:27;25.30;;;11.85;;
81821;SDS011;71257;52.192;5.654;2023-07-28T06:17:52;26.63;;;12.60;;
81821;SDS011;71257;52.192;5.654;2023-07-28T06:20:18;25.20;;;11.18;;
81821;SDS011;71257;52.192;5.654;2023-07-28T06:22:43;25.27;;;11.13;;
81821;SDS011;71257;52.192;5.654;2023-07-28T06:25:09;24.30;;;10.85;;
81821;SDS011;71257;52.192;5.654;2023-07-28T06:27:35;27.23;;;11.90;;
81821;SDS011;71257;52.192;5.654;2023-07-28T06:30:01;21.70;;;10.90;;
81821;SDS011;71257;52.192;5.654;2023-07-28T06:32:27;29.55;;;10.88;;
81821;SDS011;71257;52.192;5.654;2023-07-28T06:34:53;22.75;;;10.40;;
81821;SDS011;71257;52.192;5.654;2023-07-28T06:37:19;21.25;;;9.82;;
81821;SDS011;71257;52.192;5.654;2023-07-28T06:39:44;17.60;;;10.20;;
81821;SDS011;71257;52.192;5.654;2023-07-28T06:42:10;22.17;;;10.07;;
81821;SDS011;71257;52.192;5.654;2023-07-28T06:44:36;19.50;;;9.60;;
81821;SDS011;71257;52.192;5.654;2023-07-28T06:47:02;21.73;;;10.10;;
81821;SDS011;71257;52.192;5.654;2023-07-28T06:49:28;18.60;;;9.82;;
81821;SDS011;71257;52.192;5.654;2023-07-28T06:51:53;22.63;;;9.93;;
81821;SDS011;71257;52.192;5.654;2023-07-28T06:54:19;21.98;;;9.48;;
81821;SDS011;71257;52.192;5.654;2023-07-28T06:56:44;16.67;;;8.00;;
81821;SDS011;71257;52.192;5.654;2023-07-28T06:59:10;17.42;;;9.60;;
81821;SDS011;71257;52.192;5.654;2023-07-28T07:01:36;21.35;;;9.88;;
81821;SDS011;71257;52.192;5.654;2023-07-28T07:04:02;20.65;;;10.23;;
81821;SDS011;71257;52.192;5.654;2023-07-28T07:06:29;24.35;;;10.85;;
81821;SDS011;71257;52.192;5.654;2023-07-28T07:08:55;22.00;;;10.35;;
81821;SDS011;71257;52.192;5.654;2023-07-28T07:11:20;17.00;;;9.27;;
81821;SDS011;71257;52.192;5.654;2023-07-28T07:13:46;20.63;;;10.20;;
81821;SDS011;71257;52.192;5.654;2023-07-28T07:16:14;21.50;;;10.35;;
81821;SDS011;71257;52.192;5.654;2023-07-28T07:18:42;21.30;;;10.35;;
81821;SDS011;71257;52.192;5.654;2023-07-28T07:21:08;20.30;;;11.32;;
81821;SDS011;71257;52.192;5.654;2023-07-28T07:23:34;23.10;;;11.73;;
81821;SDS011;71257;52.192;5.654;2023-07-28T07:25:59;17.88;;;9.65;;
81821;SDS011;71257;52.192;5.654;2023-07-28T07:28:25;20.63;;;11.30;;
81821;SDS011;71257;52.192;5.654;2023-07-28T07:30:50;23.38;;;10.05;;
81821;SDS011;71257;52.192;5.654;2023-07-28T07:33:16;23.98;;;11.73;;
81821;SDS011;71257;52.192;5.654;2023-07-28T07:35:41;21.13;;;10.67;;
81821;SDS011;71257;52.192;5.654;2023-07-28T07:38:06;18.25;;;10.68;;
81821;SDS011;71257;52.192;5.654;2023-07-28T07:40:34;21.80;;;10.23;;
81821;SDS011;71257;52.192;5.654;2023-07-28T07:43:00;22.63;;;11.82;;
81821;SDS011;71257;52.192;5.654;2023-07-28T07:45:29;21.85;;;11.45;;
81821;SDS011;71257;52.192;5.654;2023-07-28T07:47:55;23.40;;;11.25;;
81821;SDS011;71257;52.192;5.654;2023-07-28T07:50:21;21.13;;;10.27;;
81821;SDS011;71257;52.192;5.654;2023-07-28T07:52:46;23.25;;;10.90;;
81821;SDS011;71257;52.192;5.654;2023-07-28T07:55:12;24.90;;;10.88;;
81821;SDS011;71257;52.192;5.654;2023-07-28T07:57:38;23.13;;;12.23;;
81821;SDS011;71257;52.192;5.654;2023-07-28T08:00:05;24.15;;;12.75;;
81821;SDS011;71257;52.192;5.654;2023-07-28T08:02:30;22.23;;;12.40;;
81821;SDS011;71257;52.192;5.654;2023-07-28T08:04:56;23.77;;;13.18;;
81821;SDS011;71257;52.192;5.654;2023-07-28T08:07:21;22.07;;;11.40;;
81821;SDS011;71257;52.192;5.654;2023-07-28T08:09:50;21.98;;;11.63;;
81821;SDS011;71257;52.192;5.654;2023-07-28T08:12:15;22.88;;;11.25;;
81821;SDS011;71257;52.192;5.654;2023-07-28T08:14:41;19.65;;;9.98;;
81821;SDS011;71257;52.192;5.654;2023-07-28T08:17:07;23.52;;;10.63;;
81821;SDS011;71257;52.192;5.654;2023-07-28T08:19:33;20.98;;;10.25;;
81821;SDS011;71257;52.192;5.654;2023-07-28T08:21:59;20.95;;;11.25;;
81821;SDS011;71257;52.192;5.654;2023-07-28T08:24:26;19.55;;;10.23;;
81821;SDS011;71257;52.192;5.654;2023-07-28T08:26:51;19.90;;;11.83;;
81821;SDS011;71257;52.192;5.654;2023-07-28T08:29:17;20.63;;;10.53;;
81821;SDS011;71257;52.192;5.654;2023-07-28T08:31:42;22.70;;;9.53;;
81821;SDS011;71257;52.192;5.654;2023-07-28T08:34:07;23.95;;;11.43;;
81821;SDS011;71257;52.192;5.654;2023-07-28T08:36:33;20.80;;;11.18;;
81821;SDS011;71257;52.192;5.654;2023-07-28T08:38:59;20.15;;;10.93;;
81821;SDS011;71257;52.192;5.654;2023-07-28T08:41:24;16.67;;;9.45;;
81821;SDS011;71257;52.192;5.654;2023-07-28T08:43:50;17.27;;;9.87;;
81821;SDS011;71257;52.192;5.654;2023-07-28T08:46:17;16.65;;;8.90;;
81821;SDS011;71257;52.192;5.654;2023-07-28T08:48:43;17.85;;;10.35;;
81821;SDS011;71257;52.192;5.654;2023-07-28T08:51:09;18.02;;;8.77;;
81821;SDS011;71257;52.192;5.654;2023-07-28T08:53:36;14.85;;;7.85;;
81821;SDS011;71257;52.192;5.654;2023-07-28T08:56:03;14.63;;;7.20;;
81821;SDS011;71257;52.192;5.654;2023-07-28T08:58:29;12.50;;;6.95;;
81821;SDS011;71257;52.192;5.654;2023-07-28T09:00:55;13.15;;;6.15;;
81821;SDS011;71257;52.192;5.654;2023-07-28T09:03:20;14.50;;;6.28;;
81821;SDS011;71257;52.192;5.654;2023-07-28T09:05:46;9.45;;;5.93;;
81821;SDS011;71257;52.192;5.654;2023-07-28T09:08:13;10.68;;;5.70;;
81821;SDS011;71257;52.192;5.654;2023-07-28T09:10:40;8.32;;;3.67;;
81821;SDS011;71257;52.192;5.654;2023-07-28T09:13:17;9.80;;;5.15;;
81821;SDS011;71257;52.192;5.654;2023-07-28T09:15:44;13.13;;;5.03;;
81821;SDS011;71257;52.192;5.654;2023-07-28T09:18:10;10.20;;;5.07;;
81821;SDS011;71257;52.192;5.654;2023-07-28T09:20:38;8.73;;;5.10;;
81821;SDS011;71257;52.192;5.654;2023-07-28T09:23:04;11.65;;;4.72;;
81821;SDS011;71257;52.192;5.654;2023-07-28T09:25:30;11.02;;;4.32;;
81821;SDS011;71257;52.192;5.654;2023-07-28T09:27:57;8.10;;;4.63;;
81821;SDS011;71257;52.192;5.654;2023-07-28T09:30:23;9.82;;;4.78;;
81821;SDS011;71257;52.192;5.654;2023-07-28T09:32:50;7.75;;;4.65;;
81821;SDS011;71257;52.192;5.654;2023-07-28T09:35:17;8.55;;;4.53;;
81821;SDS011;71257;52.192;5.654;2023-07-28T09:37:45;8.60;;;5.05;;
81821;SDS011;71257;52.192;5.654;2023-07-28T09:40:17;8.27;;;4.68;;
81821;SDS011;71257;52.192;5.654;2023-07-28T09:42:45;6.95;;;4.15;;
81821;SDS011;71257;52.192;5.654;2023-07-28T09:45:14;7.60;;;4.82;;
81821;SDS011;71257;52.192;5.654;2023-07-28T09:47:41;8.32;;;4.10;;
81821;SDS011;71257;52.192;5.654;2023-07-28T09:50:09;7.22;;;3.90;;
81821;SDS011;71257;52.192;5.654;2023-07-28T09:52:37;10.00;;;4.43;;
81821;SDS011;71257;52.192;5.654;2023-07-28T09:55:10;9.35;;;4.20;;
81821;SDS011;71257;52.192;5.654;2023-07-28T09:57:39;5.07;;;3.28;;
81821;SDS011;71257;52.192;5.654;2023-07-28T10:00:10;6.13;;;3.22;;
81821;SDS011;71257;52.192;5.654;2023-07-28T10:02:38;5.55;;;3.30;;
81821;SDS011;71257;52.192;5.654;2023-07-28T10:05:05;4.65;;;2.92;;
81821;SDS011;71257;52.192;5.654;2023-07-28T10:09:58;5.63;;;2.67;;
81821;SDS011;71257;52.192;5.654;2023-07-28T10:12:24;7.95;;;3.42;;
81821;SDS011;71257;52.192;5.654;2023-07-28T10:14:59;6.50;;;3.15;;
81821;SDS011;71257;52.192;5.654;2023-07-28T10:17:34;6.97;;;3.20;;
81821;SDS011;71257;52.192;5.654;2023-07-28T10:20:02;6.05;;;3.33;;
81821;SDS011;71257;52.192;5.654;2023-07-28T10:22:33;6.40;;;3.28;;
81821;SDS011;71257;52.192;5.654;2023-07-28T10:25:08;7.93;;;3.60;;
81821;SDS011;71257;52.192;5.654;2023-07-28T10:27:37;5.72;;;3.75;;
81821;SDS011;71257;52.192;5.654;2023-07-28T10:30:04;7.70;;;3.13;;
81821;SDS011;71257;52.192;5.654;2023-07-28T10:32:37;5.40;;;2.80;;
81821;SDS011;71257;52.192;5.654;2023-07-28T10:37:58;7.38;;;2.65;;
81821;SDS011;71257;52.192;5.654;2023-07-28T10:40:24;7.63;;;3.42;;
81821;SDS011;71257;52.192;5.654;2023-07-28T10:43:01;8.70;;;3.95;;
81821;SDS011;71257;52.192;5.654;2023-07-28T10:45:29;10.00;;;3.60;;
81821;SDS011;71257;52.192;5.654;2023-07-28T10:47:56;8.80;;;3.92;;
81821;SDS011;71257;52.192;5.654;2023-07-28T10:50:27;8.48;;;4.13;;
81821;SDS011;71257;52.192;5.654;2023-07-28T10:52:53;4.80;;;3.03;;
81821;SDS011;71257;52.192;5.654;2023-07-28T10:55:20;6.43;;;3.57;;
81821;SDS011;71257;52.192;5.654;2023-07-28T10:57:49;7.30;;;3.45;;
81821;SDS011;71257;52.192;5.654;2023-07-28T11:02:44;6.88;;;3.28;;
81821;SDS011;71257;52.192;5.654;2023-07-28T11:05:21;5.20;;;2.95;;
81821;SDS011;71257;52.192;5.654;2023-07-28T11:07:49;6.25;;;3.47;;
81821;SDS011;71257;52.192;5.654;2023-07-28T11:10:15;5.35;;;3.20;;
81821;SDS011;71257;52.192;5.654;2023-07-28T11:12:43;5.90;;;3.33;;
81821;SDS011;71257;52.192;5.654;2023-07-28T11:15:10;6.45;;;3.70;;
81821;SDS011;71257;52.192;5.654;2023-07-28T11:17:37;5.97;;;3.40;;
81821;SDS011;71257;52.192;5.654;2023-07-28T11:20:23;4.90;;;3.70;;
81821;SDS011;71257;52.192;5.654;2023-07-28T11:22:57;6.75;;;3.95;;
81821;SDS011;71257;52.192;5.654;2023-07-28T11:25:33;6.50;;;4.15;;
81821;SDS011;71257;52.192;5.654;2023-07-28T11:28:00;8.20;;;4.20;;
81821;SDS011;71257;52.192;5.654;2023-07-28T11:30:28;5.15;;;3.35;;
81821;SDS011;71257;52.192;5.654;2023-07-28T11:32:54;6.40;;;3.53;;
81821;SDS011;71257;52.192;5.654;2023-07-28T11:35:20;5.25;;;3.30;;
81821;SDS011;71257;52.192;5.654;2023-07-28T11:40:14;7.55;;;4.25;;
81821;SDS011;71257;52.192;5.654;2023-07-28T11:42:45;6.63;;;4.28;;
81821;SDS011;71257;52.192;5.654;2023-07-28T11:45:13;11.65;;;5.57;;
81821;SDS011;71257;52.192;5.654;2023-07-28T11:47:50;8.80;;;5.50;;
81821;SDS011;71257;52.192;5.654;2023-07-28T11:50:27;7.50;;;5.20;;
81821;SDS011;71257;52.192;5.654;2023-07-28T11:52:54;8.63;;;4.63;;
81821;SDS011;71257;52.192;5.654;2023-07-28T11:55:21;8.60;;;5.25;;
81821;SDS011;71257;52.192;5.654;2023-07-28T11:57:47;9.23;;;5.57;;
81821;SDS011;71257;52.192;5.654;2023-07-28T12:00:13;9.90;;;5.95;;
81821;SDS011;71257;52.192;5.654;2023-07-28T12:02:42;10.52;;;6.13;;
81821;SDS011;71257;52.192;5.654;2023-07-28T12:05:11;9.05;;;5.20;;
81821;SDS011;71257;52.192;5.654;2023-07-28T12:07:38;11.48;;;5.65;;
81821;SDS011;71257;52.192;5.654;2023-07-28T12:10:04;7.67;;;4.97;;
81821;SDS011;71257;52.192;5.654;2023-07-28T12:12:39;8.32;;;4.70;;
81821;SDS011;71257;52.192;5.654;2023-07-28T12:15:39;11.80;;;5.30;;
81821;SDS011;71257;52.192;5.654;2023-07-28T12:18:27;8.63;;;5.65;;
81821;SDS011;71257;52.192;5.654;2023-07-28T12:20:41;9.88;;;5.85;;
81821;SDS011;71257;52.192;5.654;2023-07-28T12:23:12;9.05;;;5.65;;
81821;SDS011;71257;52.192;5.654;2023-07-28T12:25:39;8.48;;;5.57;;
81821;SDS011;71257;52.192;5.654;2023-07-28T12:28:05;9.70;;;6.10;;
81821;SDS011;71257;52.192;5.654;2023-07-28T12:30:31;10.60;;;5.97;;
81821;SDS011;71257;52.192;5.654;2023-07-28T12:32:58;10.52;;;6.00;;
81821;SDS011;71257;52.192;5.654;2023-07-28T12:35:24;6.50;;;4.82;;
81821;SDS011;71257;52.192;5.654;2023-07-28T12:37:52;8.57;;;5.32;;
81821;SDS011;71257;52.192;5.654;2023-07-28T12:40:17;7.22;;;4.90;;
81821;SDS011;71257;52.192;5.654;2023-07-28T12:42:44;7.38;;;5.22;;
81821;SDS011;71257;52.192;5.654;2023-07-28T12:45:11;7.40;;;4.03;;
81821;SDS011;71257;52.192;5.654;2023-07-28T12:47:37;7.45;;;4.00;;
81821;SDS011;71257;52.192;5.654;2023-07-28T12:50:02;5.10;;;3.70;;
81821;SDS011;71257;52.192;5.654;2023-07-28T12:52:29;6.72;;;4.10;;
81821;SDS011;71257;52.192;5.654;2023-07-28T12:54:54;6.68;;;3.95;;
81821;SDS011;71257;52.192;5.654;2023-07-28T12:57:20;5.65;;;3.53;;
81821;SDS011;71257;52.192;5.654;2023-07-28T12:59:45;6.35;;;4.22;;
81821;SDS011;71257;52.192;5.654;2023-07-28T13:02:10;8.15;;;4.22;;
81821;SDS011;71257;52.192;5.654;2023-07-28T13:04:36;7.87;;;4.23;;
81821;SDS011;71257;52.192;5.654;2023-07-28T13:07:01;6.00;;;4.00;;
81821;SDS011;71257;52.192;5.654;2023-07-28T13:09:27;7.35;;;4.50;;
81821;SDS011;71257;52.192;5.654;2023-07-28T13:11:53;7.28;;;4.68;;
81821;SDS011;71257;52.192;5.654;2023-07-28T13:14:18;6.55;;;4.32;;
81821;SDS011;71257;52.192;5.654;2023-07-28T13:16:44;6.53;;;4.53;;
81821;SDS011;71257;52.192;5.654;2023-07-28T13:19:09;6.85;;;4.28;;
81821;SDS011;71257;52.192;5.654;2023-07-28T13:21:35;7.65;;;4.47;;
81821;SDS011;71257;52.192;5.654;2023-07-28T13:24:00;7.93;;;4.20;;
81821;SDS011;71257;52.192;5.654;2023-07-28T13:26:26;6.07;;;4.38;;
81821;SDS011;71257;52.192;5.654;2023-07-28T13:28:51;7.88;;;4.70;;
81821;SDS011;71257;52.192;5.654;2023-07-28T13:31:17;5.78;;;4.50;;
81821;SDS011;71257;52.192;5.654;2023-07-28T13:33:43;8.32;;;4.60;;
81821;SDS011;71257;52.192;5.654;2023-07-28T13:36:09;7.45;;;4.32;;
81821;SDS011;71257;52.192;5.654;2023-07-28T13:38:34;5.75;;;4.20;;
81821;SDS011;71257;52.192;5.654;2023-07-28T13:41:01;5.53;;;3.97;;
81821;SDS011;71257;52.192;5.654;2023-07-28T13:43:29;7.43;;;4.68;;
81821;SDS011;71257;52.192;5.654;2023-07-28T13:45:54;7.03;;;4.28;;
81821;SDS011;71257;52.192;5.654;2023-07-28T13:48:19;7.15;;;4.32;;
81821;SDS011;71257;52.192;5.654;2023-07-28T13:50:45;5.45;;;4.10;;
81821;SDS011;71257;52.192;5.654;2023-07-28T13:53:10;6.57;;;4.80;;
81821;SDS011;71257;52.192;5.654;2023-07-28T13:55:36;4.93;;;3.90;;
81821;SDS011;71257;52.192;5.654;2023-07-28T13:58:01;6.53;;;4.40;;
81821;SDS011;71257;52.192;5.654;2023-07-28T14:00:26;5.22;;;4.22;;
81821;SDS011;71257;52.192;5.654;2023-07-28T14:02:52;6.30;;;4.68;;
81821;SDS011;71257;52.192;5.654;2023-07-28T14:05:17;8.65;;;4.38;;
81821;SDS011;71257;52.192;5.654;2023-07-28T14:07:44;5.53;;;4.30;;
81821;SDS011;71257;52.192;5.654;2023-07-28T14:10:09;5.88;;;4.70;;
81821;SDS011;71257;52.192;5.654;2023-07-28T14:12:35;5.57;;;4.43;;
81821;SDS011;71257;52.192;5.654;2023-07-28T14:15:00;7.90;;;3.95;;
81821;SDS011;71257;52.192;5.654;2023-07-28T14:17:26;7.97;;;4.03;;
81821;SDS011;71257;52.192;5.654;2023-07-28T14:19:51;5.97;;;3.80;;
81821;SDS011;71257;52.192;5.654;2023-07-28T14:22:17;7.05;;;4.03;;
81821;SDS011;71257;52.192;5.654;2023-07-28T14:24:42;5.87;;;3.73;;
81821;SDS011;71257;52.192;5.654;2023-07-28T14:27:07;5.93;;;3.92;;
81821;SDS011;71257;52.192;5.654;2023-07-28T14:29:33;7.33;;;4.43;;
81821;SDS011;71257;52.192;5.654;2023-07-28T14:31:58;5.90;;;3.88;;
81821;SDS011;71257;52.192;5.654;2023-07-28T14:34:23;6.47;;;4.03;;
81821;SDS011;71257;52.192;5.654;2023-07-28T14:36:49;6.73;;;4.20;;
81821;SDS011;71257;52.192;5.654;2023-07-28T14:39:14;7.77;;;4.40;;
81821;SDS011;71257;52.192;5.654;2023-07-28T14:41:40;6.07;;;4.03;;
81821;SDS011;71257;52.192;5.654;2023-07-28T14:44:05;6.43;;;4.23;;
81821;SDS011;71257;52.192;5.654;2023-07-28T14:46:30;6.03;;;4.50;;